createdAt,value
2019-05-09T00:01:14.175Z,11.97
2019-05-09T00:03:46.163Z,15.58
2019-05-09T00:06:18.129Z,15.58
2019-05-09T00:08:50.277Z,14.73
2019-05-09T00:11:24.412Z,17.52
2019-05-09T00:13:55.933Z,13.43
2019-05-09T00:16:27.955Z,14.63
2019-05-09T00:19:00.420Z,14.90
2019-05-09T00:21:33.932Z,17.42
2019-05-09T00:24:06.285Z,14.35
2019-05-09T00:26:38.731Z,14.25
2019-05-09T00:29:14.037Z,11.28
2019-05-09T00:31:48.059Z,15.40
2019-05-09T00:34:23.409Z,15.53
2019-05-09T00:36:55.651Z,17.02
2019-05-09T00:39:28.173Z,14.85
2019-05-09T00:42:00.367Z,18.60
2019-05-09T00:44:34.151Z,16.00
2019-05-09T00:47:07.965Z,20.55
2019-05-09T00:49:40.120Z,30.30
2019-05-09T00:52:14.085Z,15.05
2019-05-09T00:54:46.178Z,12.40
2019-05-09T00:57:28.825Z,15.90
2019-05-09T01:00:01.066Z,13.45
2019-05-09T01:02:34.018Z,16.27
2019-05-09T01:05:06.975Z,13.38
2019-05-09T01:07:39.044Z,22.87
2019-05-09T01:10:13.333Z,28.17
2019-05-09T01:12:45.567Z,17.35
2019-05-09T01:15:18.159Z,16.95
2019-05-09T01:17:50.488Z,13.35
2019-05-09T01:20:24.142Z,21.37
2019-05-09T01:22:57.052Z,14.30
2019-05-09T01:25:29.373Z,15.60
2019-05-09T01:28:03.358Z,16.40
2019-05-09T01:30:35.393Z,15.48
2019-05-09T01:33:09.320Z,13.28
2019-05-09T01:35:43.404Z,18.00
2019-05-09T01:38:15.827Z,12.93
2019-05-09T01:40:47.851Z,19.37
2019-05-09T01:43:19.595Z,16.32
2019-05-09T01:45:53.907Z,18.75
2019-05-09T01:48:26.448Z,19.30
2019-05-09T01:50:58.818Z,11.88
2019-05-09T01:53:53.194Z,17.52
2019-05-09T01:56:24.891Z,12.98
2019-05-09T01:58:56.963Z,16.77
2019-05-09T02:01:43.838Z,19.62
2019-05-09T02:04:19.601Z,15.85
2019-05-09T02:06:53.752Z,15.43
2019-05-09T02:09:25.928Z,18.80
2019-05-09T02:11:58.422Z,14.15
2019-05-09T02:14:34.256Z,12.30
2019-05-09T02:17:07.490Z,17.90
2019-05-09T02:19:58.930Z,29.23
2019-05-09T02:22:35.638Z,12.00
2019-05-09T02:25:11.012Z,18.25
2019-05-09T02:27:44.294Z,18.52
2019-05-09T02:30:17.782Z,20.20
2019-05-09T02:32:50.159Z,13.83
2019-05-09T02:35:55.692Z,17.00
2019-05-09T02:38:19.714Z,19.20
2019-05-09T02:40:50.814Z,18.50
2019-05-09T02:43:23.702Z,13.80
2019-05-09T02:45:59.501Z,24.23
2019-05-09T02:48:31.178Z,16.87
2019-05-09T02:51:03.576Z,23.83
2019-05-09T02:53:39.094Z,18.92
2019-05-09T02:56:09.597Z,27.17
2019-05-09T02:58:43.570Z,21.10
2019-05-09T03:01:18.953Z,14.93
2019-05-09T03:03:58.794Z,16.35
2019-05-09T03:06:29.752Z,21.50
2019-05-09T03:09:02.028Z,18.92
2019-05-09T03:11:34.176Z,18.75
2019-05-09T03:14:10.505Z,18.75
2019-05-09T03:16:48.859Z,15.70
2019-05-09T03:19:38.906Z,25.52
2019-05-09T03:22:29.821Z,14.07
2019-05-09T03:25:03.120Z,50.55
2019-05-09T03:27:39.117Z,20.25
2019-05-09T03:30:29.179Z,15.80
2019-05-09T03:33:01.904Z,20.48
2019-05-09T03:35:35.043Z,20.70
2019-05-09T03:38:08.349Z,17.67
2019-05-09T03:40:42.016Z,23.20
2019-05-09T03:43:33.157Z,16.70
2019-05-09T03:46:07.795Z,14.30
2019-05-09T03:48:41.692Z,17.05
2019-05-09T03:51:14.179Z,16.00
2019-05-09T03:53:48.434Z,21.97
2019-05-09T03:56:21.989Z,17.60
2019-05-09T03:58:54.265Z,17.62
2019-05-09T04:01:28.053Z,17.45
2019-05-09T04:04:00.755Z,15.45
2019-05-09T04:06:34.245Z,18.40
2019-05-09T04:09:08.252Z,18.92
2019-05-09T04:11:49.125Z,19.67
2019-05-09T04:14:23.042Z,17.92
2019-05-09T04:16:57.359Z,13.68
2019-05-09T04:19:49.171Z,19.30
2019-05-09T04:22:22.755Z,21.50
2019-05-09T04:24:54.769Z,17.05
2019-05-09T04:27:29.844Z,22.20
2019-05-09T04:30:06.235Z,15.43
2019-05-09T04:32:37.758Z,13.22
2019-05-09T04:35:10.351Z,20.80
2019-05-09T04:37:42.421Z,19.50
2019-05-09T04:40:37.761Z,11.57
2019-05-09T04:43:15.351Z,14.03
2019-05-09T04:45:42.065Z,17.45
2019-05-09T04:48:20.374Z,14.58
2019-05-09T04:50:49.516Z,16.12
2019-05-09T04:53:40.838Z,19.92
2019-05-09T04:56:19.362Z,21.35
2019-05-09T04:58:51.533Z,17.62
2019-05-09T05:01:24.916Z,15.40
2019-05-09T05:04:07.800Z,25.75
2019-05-09T05:06:40.531Z,14.13
2019-05-09T05:09:13.183Z,20.32
2019-05-09T05:11:47.127Z,18.07
2019-05-09T05:14:21.235Z,11.88
2019-05-09T05:17:05.438Z,14.85
2019-05-09T05:19:31.506Z,11.83
2019-05-09T05:22:04.795Z,20.92
2019-05-09T05:24:38.715Z,16.60
2019-05-09T05:27:11.521Z,23.47
2019-05-09T05:29:43.640Z,17.80
2019-05-09T05:32:17.960Z,19.37
2019-05-09T05:34:54.591Z,18.42
2019-05-09T05:37:28.115Z,23.25
2019-05-09T05:40:00.171Z,16.20
2019-05-09T05:42:32.293Z,17.05
2019-05-09T05:45:07.500Z,15.58
2019-05-09T05:47:41.338Z,17.55
2019-05-09T05:50:13.896Z,23.65
2019-05-09T05:52:47.525Z,19.40
2019-05-09T05:55:19.638Z,17.32
2019-05-09T05:57:51.781Z,19.77
2019-05-09T06:00:25.651Z,34.67
2019-05-09T06:02:58.719Z,29.55
2019-05-09T06:05:31.074Z,18.45
2019-05-09T06:08:03.162Z,21.75
2019-05-09T06:10:37.812Z,19.52
2019-05-09T06:13:09.424Z,19.48
2019-05-09T06:15:42.811Z,14.55
2019-05-09T06:18:18.395Z,23.87
2019-05-09T06:20:51.037Z,16.17
2019-05-09T06:23:23.654Z,17.67
2019-05-09T06:25:58.482Z,17.67
2019-05-09T06:28:30.051Z,22.40
2019-05-09T06:31:02.010Z,16.20
2019-05-09T06:33:34.509Z,15.68
2019-05-09T06:36:08.042Z,16.52
2019-05-09T06:38:41.573Z,22.32
2019-05-09T06:41:14.999Z,13.95
2019-05-09T06:43:49.703Z,17.40
2019-05-09T06:46:23.888Z,13.43
2019-05-09T06:49:17.906Z,18.10
2019-05-09T06:51:30.483Z,15.30
2019-05-09T06:54:09.430Z,18.87
2019-05-09T06:56:41.644Z,15.05
2019-05-09T06:59:14.001Z,20.50
2019-05-09T07:01:48.222Z,14.05
2019-05-09T07:04:21.589Z,22.73
2019-05-09T07:07:14.412Z,19.37
2019-05-09T07:09:48.094Z,15.70
2019-05-09T07:12:29.899Z,16.25
2019-05-09T07:15:02.205Z,21.33
2019-05-09T07:17:43.675Z,17.70
2019-05-09T07:20:18.295Z,17.23
2019-05-09T07:22:51.467Z,17.30
2019-05-09T07:25:27.622Z,16.35
2019-05-09T07:27:59.327Z,18.20
2019-05-09T07:33:24.562Z,14.47
2019-05-09T07:35:58.119Z,15.83
2019-05-09T07:38:34.519Z,14.50
2019-05-09T07:41:08.890Z,18.85
2019-05-09T07:43:43.980Z,15.55
2019-05-09T07:46:18.002Z,14.13
2019-05-09T07:48:52.201Z,18.77
2019-05-09T07:51:27.507Z,14.28
2019-05-09T07:54:21.232Z,18.85
2019-05-09T07:56:40.398Z,18.05
2019-05-09T07:59:12.644Z,18.20
2019-05-09T08:02:04.799Z,23.83
2019-05-09T08:04:39.739Z,18.60
2019-05-09T08:07:11.788Z,14.23
2019-05-09T08:09:49.297Z,19.82
2019-05-09T08:12:21.641Z,15.28
2019-05-09T08:15:08.536Z,14.83
2019-05-09T08:17:29.956Z,16.42
2019-05-09T08:20:02.273Z,16.75
2019-05-09T08:22:34.898Z,16.25
2019-05-09T08:25:08.431Z,17.37
2019-05-09T08:27:40.406Z,15.65
2019-05-09T08:30:13.226Z,16.25
2019-05-09T08:32:48.001Z,12.68
2019-05-09T08:35:19.436Z,22.22
2019-05-09T08:37:51.634Z,16.50
2019-05-09T08:40:24.196Z,16.62
2019-05-09T08:42:58.897Z,14.38
2019-05-09T08:45:31.444Z,13.45
2019-05-09T08:48:04.024Z,15.78
2019-05-09T08:50:38.914Z,15.98
2019-05-09T08:53:11.293Z,16.23
2019-05-09T08:55:43.471Z,16.45
2019-05-09T08:58:19.271Z,16.57
2019-05-09T09:00:49.474Z,18.52
2019-05-09T09:03:21.902Z,27.02
2019-05-09T09:05:54.843Z,25.08
2019-05-09T09:08:28.426Z,21.07
2019-05-09T09:11:01.233Z,25.62
2019-05-09T09:13:33.499Z,45.08
2019-05-09T09:16:15.806Z,30.37
2019-05-09T09:18:39.739Z,22.90
2019-05-09T09:21:12.361Z,13.32
2019-05-09T09:23:49.618Z,22.75
2019-05-09T09:26:18.879Z,18.10
2019-05-09T09:28:51.431Z,12.85
2019-05-09T09:31:24.671Z,9.73
2019-05-09T09:34:18.088Z,18.50
2019-05-09T09:36:49.954Z,10.38
2019-05-09T09:39:22.123Z,13.22
2019-05-09T09:41:54.267Z,9.53
2019-05-09T09:44:28.775Z,9.43
2019-05-09T09:47:01.184Z,15.05
2019-05-09T09:49:33.726Z,15.58
2019-05-09T09:52:08.517Z,18.07
2019-05-09T09:54:39.899Z,19.35
2019-05-09T09:57:11.928Z,18.20
2019-05-09T09:59:48.130Z,11.18
2019-05-09T10:02:21.175Z,14.98
2019-05-09T10:04:53.181Z,15.65
2019-05-09T10:07:27.817Z,11.83
2019-05-09T10:09:59.483Z,9.95
2019-05-09T10:12:32.081Z,8.18
2019-05-09T10:15:24.389Z,9.70
2019-05-09T10:17:59.067Z,13.20
2019-05-09T10:20:33.138Z,29.45
2019-05-09T10:23:16.985Z,16.37
2019-05-09T10:25:40.264Z,11.70
2019-05-09T10:28:12.334Z,8.13
2019-05-09T10:30:44.636Z,10.70
2019-05-09T10:33:17.516Z,15.85
2019-05-09T10:35:49.655Z,12.23
2019-05-09T10:38:21.602Z,14.00
2019-05-09T10:40:53.866Z,15.10
2019-05-09T10:43:35.632Z,9.53
2019-05-09T10:46:02.764Z,9.40
2019-05-09T10:48:38.738Z,12.13
2019-05-09T10:51:10.950Z,18.77
2019-05-09T10:53:43.584Z,11.10
2019-05-09T10:56:18.387Z,7.62
2019-05-09T10:58:49.515Z,14.47
2019-05-09T11:01:22.335Z,8.98
2019-05-09T11:03:54.554Z,13.25
2019-05-09T11:06:28.652Z,9.58
2019-05-09T11:09:13.228Z,12.40
2019-05-09T11:11:48.639Z,13.58
2019-05-09T11:14:35.467Z,13.18
2019-05-09T11:17:07.937Z,12.63
2019-05-09T11:19:29.311Z,11.57
2019-05-09T11:22:01.530Z,9.60
2019-05-09T11:24:43.035Z,9.73
2019-05-09T11:27:08.630Z,9.55
2019-05-09T11:29:40.671Z,11.93
2019-05-09T11:32:12.922Z,15.68
2019-05-09T11:34:48.431Z,12.33
2019-05-09T11:37:22.139Z,10.30
2019-05-09T11:39:52.781Z,10.20
2019-05-09T11:42:24.845Z,14.78
2019-05-09T11:44:58.045Z,16.42
2019-05-09T11:47:39.497Z,13.25
2019-05-09T11:50:04.116Z,15.30
2019-05-09T11:52:38.292Z,11.50
2019-05-09T11:55:28.871Z,26.80
2019-05-09T11:57:43.820Z,13.48
2019-05-09T12:00:19.315Z,13.88
2019-05-09T12:02:51.920Z,9.65
2019-05-09T12:05:24.174Z,9.63
2019-05-09T12:07:58.199Z,11.00
2019-05-09T12:10:31.093Z,10.30
2019-05-09T12:13:03.362Z,9.03
2019-05-09T12:15:35.291Z,9.25
2019-05-09T12:18:11.355Z,9.33
2019-05-09T12:21:02.114Z,8.13
2019-05-09T12:23:34.188Z,12.33
2019-05-09T12:26:08.245Z,12.18
2019-05-09T12:28:40.718Z,10.43
2019-05-09T12:31:13.014Z,10.43
2019-05-09T12:33:47.976Z,9.80
2019-05-09T12:36:19.458Z,5.75
2019-05-09T12:38:54.989Z,6.80
2019-05-09T12:41:31.525Z,8.08
2019-05-09T12:44:01.358Z,6.45
2019-05-09T12:46:33.309Z,10.30
2019-05-09T12:49:05.403Z,7.08
2019-05-09T12:51:37.788Z,11.68
2019-05-09T12:54:09.808Z,10.95
2019-05-09T12:56:49.713Z,14.85
2019-05-09T12:59:21.896Z,13.58
2019-05-09T13:01:54.507Z,7.20
2019-05-09T13:04:28.163Z,8.08
2019-05-09T13:07:00.593Z,8.50
2019-05-09T13:09:34.863Z,8.18
2019-05-09T13:12:08.624Z,10.58
2019-05-09T13:15:00.384Z,6.72
2019-05-09T13:17:32.335Z,12.37
2019-05-09T13:20:05.171Z,12.05
2019-05-09T13:22:38.367Z,9.73
2019-05-09T13:25:11.968Z,7.25
2019-05-09T13:27:44.211Z,8.18
2019-05-09T13:30:19.160Z,11.73
2019-05-09T13:32:51.242Z,17.35
2019-05-09T13:35:23.294Z,13.35
2019-05-09T13:37:55.367Z,9.43
2019-05-09T13:40:30.874Z,10.50
2019-05-09T13:43:03.505Z,10.13
2019-05-09T13:45:35.707Z,10.30
2019-05-09T13:48:27.234Z,11.57
2019-05-09T13:50:42.203Z,7.78
2019-05-09T13:53:14.819Z,11.05
2019-05-09T13:55:48.029Z,12.18
2019-05-09T13:58:20.024Z,20.70
2019-05-09T14:00:58.979Z,14.55
2019-05-09T14:03:45.151Z,10.50
2019-05-09T14:06:17.446Z,17.10
2019-05-09T14:08:49.355Z,11.63
2019-05-09T14:11:40.746Z,12.82
2019-05-09T14:14:12.851Z,6.25
2019-05-09T14:16:44.890Z,10.35
2019-05-09T14:19:45.445Z,12.98
2019-05-09T14:22:10.448Z,5.80
2019-05-09T14:24:43.821Z,8.45
2019-05-09T14:27:18.507Z,23.77
2019-05-09T14:29:49.974Z,12.40
2019-05-09T14:32:21.981Z,7.45
2019-05-09T14:34:54.659Z,7.78
2019-05-09T14:37:28.363Z,7.17
2019-05-09T14:40:04.426Z,9.28
2019-05-09T14:42:34.614Z,6.15
2019-05-09T14:45:08.519Z,12.85
2019-05-09T14:47:42.497Z,6.05
2019-05-09T14:50:14.718Z,11.97
2019-05-09T14:52:49.248Z,14.63
2019-05-09T14:55:21.027Z,10.63
2019-05-09T14:57:53.308Z,9.48
2019-05-09T15:00:26.505Z,9.65
2019-05-09T15:02:59.318Z,6.53
2019-05-09T15:05:31.448Z,9.78
2019-05-09T15:08:03.608Z,11.80
2019-05-09T15:10:38.035Z,6.47
2019-05-09T15:13:10.448Z,9.45
2019-05-09T15:15:42.386Z,8.10
2019-05-09T15:18:14.563Z,10.20
2019-05-09T15:20:47.923Z,7.33
2019-05-09T15:23:21.181Z,8.50
2019-05-09T15:25:54.043Z,8.38
2019-05-09T15:28:28.932Z,6.37
2019-05-09T15:31:00.842Z,7.97
2019-05-09T15:33:32.991Z,9.95
2019-05-09T15:36:04.960Z,9.50
2019-05-09T15:38:37.947Z,7.55
2019-05-09T15:41:12.303Z,7.87
2019-05-09T15:43:44.527Z,8.48
2019-05-09T15:46:18.620Z,9.53
2019-05-09T15:48:51.143Z,9.45
2019-05-09T15:51:23.510Z,11.45
2019-05-09T15:53:57.779Z,10.08
2019-05-09T15:56:29.509Z,9.90
2019-05-09T15:59:01.444Z,9.50
2019-05-09T16:01:33.572Z,10.35
2019-05-09T16:04:05.568Z,10.55
2019-05-09T16:06:39.147Z,10.38
2019-05-09T16:09:12.144Z,9.28
2019-05-09T16:11:44.303Z,8.15
2019-05-09T16:14:18.481Z,11.68
2019-05-09T16:16:50.667Z,12.13
2019-05-09T16:19:22.790Z,10.85
2019-05-09T16:21:55.050Z,12.75
2019-05-09T16:24:28.155Z,9.45
2019-05-09T16:27:01.278Z,8.13
2019-05-09T16:29:33.495Z,9.90
2019-05-09T16:32:05.498Z,17.98
2019-05-09T16:34:38.734Z,14.70
2019-05-09T16:37:11.032Z,11.95
2019-05-09T16:39:43.215Z,13.53
2019-05-09T16:42:15.306Z,18.67
2019-05-09T16:44:48.082Z,14.28
2019-05-09T16:47:22.006Z,18.20
2019-05-09T16:49:54.227Z,12.07
2019-05-09T16:52:26.377Z,15.28
2019-05-09T16:54:59.746Z,17.82
2019-05-09T16:57:32.101Z,14.78
2019-05-09T17:00:04.622Z,12.37
2019-05-09T17:02:38.140Z,14.80
2019-05-09T17:05:11.092Z,11.50
2019-05-09T17:07:43.023Z,13.38
2019-05-09T17:10:17.589Z,8.48
2019-05-09T17:12:49.548Z,12.75
2019-05-09T17:15:23.631Z,10.40
2019-05-09T17:17:55.996Z,12.78
2019-05-09T17:20:29.373Z,11.18
2019-05-09T17:23:13.472Z,13.00
2019-05-09T17:25:40.173Z,15.48
2019-05-09T17:28:13.017Z,17.15
2019-05-09T17:30:45.446Z,13.32
2019-05-09T17:33:17.926Z,12.93
2019-05-09T17:35:51.103Z,17.87
2019-05-09T17:38:23.211Z,15.38
2019-05-09T17:40:57.605Z,12.47
2019-05-09T17:43:29.166Z,14.45
2019-05-09T17:46:01.243Z,15.72
2019-05-09T17:48:33.702Z,18.42
2019-05-09T17:51:08.441Z,13.83
2019-05-09T17:53:39.980Z,17.80
2019-05-09T17:56:12.455Z,16.30
2019-05-09T17:58:44.519Z,15.10
2019-05-09T18:01:17.954Z,15.95
2019-05-09T18:03:50.944Z,15.83
2019-05-09T18:06:23.052Z,15.85
2019-05-09T18:08:57.492Z,17.82
2019-05-09T18:11:28.705Z,14.30
2019-05-09T18:14:00.852Z,13.60
2019-05-09T18:16:32.969Z,19.50
2019-05-09T18:19:08.179Z,17.23
2019-05-09T18:21:49.991Z,17.30
2019-05-09T18:24:13.156Z,12.93
2019-05-09T18:26:47.451Z,17.77
2019-05-09T18:29:22.143Z,12.07
2019-05-09T18:31:55.679Z,19.45
2019-05-09T18:34:28.786Z,16.57
2019-05-09T18:37:00.759Z,14.73
2019-05-09T18:39:32.721Z,17.73
2019-05-09T18:42:05.559Z,15.20
2019-05-09T18:44:37.694Z,15.25
2019-05-09T18:47:10.063Z,19.40
2019-05-09T18:49:42.226Z,14.20
2019-05-09T18:52:14.378Z,15.80
2019-05-09T18:54:47.422Z,15.70
2019-05-09T18:57:19.597Z,23.42
2019-05-09T18:59:51.614Z,16.05
2019-05-09T19:02:23.813Z,14.40
2019-05-09T19:04:55.895Z,15.38
2019-05-09T19:07:28.188Z,16.90
2019-05-09T19:10:00.360Z,16.67
2019-05-09T19:12:32.425Z,17.52
2019-05-09T19:15:06.416Z,17.23
2019-05-09T19:17:40.015Z,17.73
2019-05-09T19:20:14.075Z,15.45
2019-05-09T19:22:46.229Z,15.63
2019-05-09T19:25:18.349Z,15.72
2019-05-09T19:27:51.358Z,15.93
2019-05-09T19:30:25.774Z,22.98
2019-05-09T19:32:57.902Z,22.07
2019-05-09T19:35:29.952Z,15.90
2019-05-09T19:38:02.076Z,20.15
2019-05-09T19:40:34.375Z,17.95
2019-05-09T19:43:06.327Z,18.73
2019-05-09T19:45:38.592Z,19.82
2019-05-09T19:48:10.886Z,17.15
2019-05-09T19:50:42.712Z,35.25
2019-05-09T19:53:14.995Z,17.87
2019-05-09T19:55:47.472Z,21.50
2019-05-09T19:58:19.632Z,22.70
2019-05-09T20:00:51.642Z,23.83
2019-05-09T20:03:24.206Z,20.90
2019-05-09T20:05:56.549Z,25.72
2019-05-09T20:08:28.699Z,24.02
2019-05-09T20:11:02.298Z,26.87
2019-05-09T20:13:35.725Z,29.63
2019-05-09T20:16:08.321Z,23.55
2019-05-09T20:18:40.364Z,35.30
2019-05-09T20:21:31.721Z,26.33
2019-05-09T20:24:03.847Z,23.73
2019-05-09T20:26:36.057Z,23.73
2019-05-09T20:29:08.701Z,25.82
2019-05-09T20:31:41.620Z,26.77
2019-05-09T20:34:13.823Z,25.77
2019-05-09T20:36:45.946Z,25.65
2019-05-09T20:39:18.151Z,26.02
2019-05-09T20:41:51.224Z,24.92
2019-05-09T20:44:23.432Z,26.75
2019-05-09T20:46:56.173Z,26.50
2019-05-09T20:49:28.505Z,28.38
2019-05-09T20:52:00.667Z,31.35
2019-05-09T20:54:32.802Z,29.42
2019-05-09T20:57:05.462Z,26.87
2019-05-09T20:59:37.676Z,30.17
2019-05-09T21:02:10.123Z,32.58
2019-05-09T21:04:42.595Z,32.10
2019-05-09T21:07:15.268Z,31.25
2019-05-09T21:09:47.683Z,32.33
2019-05-09T21:12:20.400Z,34.33
2019-05-09T21:14:52.787Z,30.85
2019-05-09T21:17:25.149Z,37.35
2019-05-09T21:19:57.528Z,37.03
2019-05-09T21:22:29.734Z,31.75
2019-05-09T21:25:02.074Z,31.65
2019-05-09T21:27:34.508Z,32.70
2019-05-09T21:30:09.507Z,40.65
2019-05-09T21:32:42.846Z,35.23
2019-05-09T21:35:15.649Z,36.42
2019-05-09T21:37:47.880Z,34.75
2019-05-09T21:40:22.151Z,48.17
2019-05-09T21:42:54.198Z,30.15
2019-05-09T21:45:26.421Z,28.60
2019-05-09T21:47:58.810Z,32.42
2019-05-09T21:50:30.822Z,39.75
2019-05-09T21:53:03.208Z,35.00
2019-05-09T21:55:35.582Z,34.43
2019-05-09T21:58:07.689Z,27.80
2019-05-09T22:00:43.271Z,32.40
2019-05-09T22:03:15.555Z,47.95
2019-05-09T22:05:47.472Z,32.90
2019-05-09T22:08:19.871Z,42.27
2019-05-09T22:10:52.206Z,32.42
2019-05-09T22:13:24.261Z,42.90
2019-05-09T22:15:56.606Z,39.05
2019-05-09T22:18:31.486Z,27.50
2019-05-09T22:21:04.448Z,31.60
2019-05-09T22:23:36.408Z,32.60
2019-05-09T22:26:09.112Z,29.45
2019-05-09T22:28:41.248Z,31.48
2019-05-09T22:31:13.512Z,30.97
2019-05-09T22:33:46.077Z,35.28
2019-05-09T22:36:18.106Z,39.38
2019-05-09T22:38:50.710Z,33.95
2019-05-09T22:41:22.925Z,33.90
2019-05-09T22:43:54.925Z,46.00
2019-05-09T22:46:27.072Z,34.38
2019-05-09T22:48:59.415Z,41.40
2019-05-09T22:51:31.475Z,39.27
2019-05-09T22:54:12.389Z,39.18
2019-05-09T22:56:37.143Z,45.63
2019-05-09T22:59:09.960Z,34.27
2019-05-09T23:01:42.183Z,34.90
2019-05-09T23:04:14.430Z,37.40
2019-05-09T23:06:46.521Z,32.28
2019-05-09T23:09:21.230Z,33.35
2019-05-09T23:11:53.435Z,36.75
2019-05-09T23:14:25.652Z,36.48
2019-05-09T23:16:57.747Z,39.08
2019-05-09T23:19:30.687Z,34.25
2019-05-09T23:22:02.964Z,32.15
2019-05-09T23:24:37.991Z,32.50
2019-05-09T23:27:12.622Z,34.40
2019-05-09T23:29:55.854Z,38.42
2019-05-09T23:32:29.234Z,34.43
2019-05-09T23:35:02.119Z,33.33
2019-05-09T23:37:34.281Z,40.17
2019-05-09T23:40:08.637Z,32.25
2019-05-09T23:42:40.647Z,28.40
2019-05-09T23:45:13.141Z,31.68
2019-05-09T23:47:45.667Z,28.27
2019-05-09T23:50:18.222Z,32.50
2019-05-09T23:52:51.448Z,28.83
2019-05-09T23:55:25.018Z,39.40
2019-05-09T23:58:07.720Z,34.55
